Nearby METAR Reports

 

KDWH - Houston/Dw Hooks, Texas, USA
Distance from station: WNW 3mi, 6km
Updated: 06/04/2020 5:40am
Mist, Partly cloudy
Mist, Partly cloudy
 Wind from calm
Wind: Calm
Temperature: 72°F , 22°C
Dew Point: 70°F , 21°C
Humidity: 94%
Barometer: 29.88 inHg , 1011.9 hPa
Summary: Mist
Clouds: Partly cloudy
Visibility: 6 miles , 10 km
Cloud details: Few Clouds 1600 ft
Partly cloudy 2100 ft
2020/06/04 10:40 KDWH 041040Z AUTO 00000KT 6SM BR FEW016 SCT021 22/21 A2988 RMK AO2 T02220211
KIAH - Houston/Intnl, Texas, USA
Distance from station: ESE 9mi, 14km
Updated: 06/04/2020 4:53am
Shallow fog, Few clouds
Shallow fog, Few clouds
 Wind from calm
Wind: Calm
Temperature: 73°F , 23°C
Dew Point: 72°F , 22°C
Humidity: 94%
Barometer: 29.88 inHg , 1011.9 hPa
Summary: Shallow Fog
Clouds: Few Clouds
Visibility: 10 miles , 16 km
Cloud details: Few Clouds 1500 ft
Few Clouds 13000 ft
2020/06/04 09:53 KIAH 040953Z 00000KT 10SM MIFG FEW015 FEW130 23/22 A2988 RMK AO2 SLP119 T02280222
 
KCXO - Conroe, Texas, USA
Distance from station: NNE 21mi, 34km
Updated: 06/04/2020 4:53am
Fog, Overcast
Fog, Overcast
 Wind from calm
Wind: Calm
Temperature: 72°F , 22°C
Dew Point: 72°F , 22°C
Humidity: 100%
Barometer: 29.89 inHg , 1012.2 hPa
Summary: Fog
Clouds: Overcast
Visibility: 1/4 mile , 0.4 km
Cloud details: Overcast 200 ft
2020/06/04 09:53 KCXO 040953Z AUTO 00000KT 1/4SM FG VV002 22/22 A2989 RMK AO2 SLP120 T02220222
KMCJ - Houston/Univ, Texas, USA
Distance from station: SSE 24mi, 39km
Updated: 02/19/2020 9:15am
NOT Current

 
2020/02/19 15:15 KMCJ 191515Z AUTO RMK A01 PNO
 
KTME - Houston Exec, Texas, USA
Distance from station: SW 30mi, 48km
Updated: 06/04/2020 5:35am
Mist, Overcast
Mist, Overcast
 Wind from calm
Wind: Calm
Temperature: 73°F , 23°C
Dew Point: 73°F , 23°C
Humidity: 100%
Barometer: 29.89 inHg , 1012.2 hPa
Summary: Mist
Clouds: Overcast
Visibility: 1 1/4 miles , 2 km
Cloud details: Overcast 200 ft
2020/06/04 10:35 KTME 041035Z AUTO 00000KT 1 1/4SM BR OVC002 23/23 A2989 RMK AO2
KHOU - Houston/Hobby, Texas, USA
Distance from station: SSE 32mi, 51km
Updated: 06/04/2020 4:53am
Partly cloudy
Partly cloudy
 Wind from calm
Wind: Calm
Temperature: 75°F , 24°C
Dew Point: 73°F , 23°C
Humidity: 94%
Barometer: 29.88 inHg , 1011.9 hPa
Clouds: Partly cloudy
Visibility: 10 miles , 16 km
Cloud details: Partly cloudy 1600 ft
2020/06/04 09:53 KHOU 040953Z 00000KT 10SM SCT016 24/23 A2988 RMK AO2 SLP122 T02440228
 
KSGR - Houston/Sugar La, Texas, USA
Distance from station: SSW 32mi, 51km
Updated: 06/04/2020 5:41am
Mist, Partly cloudy
Mist, Partly cloudy
 Wind from calm
Wind: Calm
Temperature: 73°F , 23°C
Dew Point: 73°F , 23°C
Humidity: 100%
Barometer: 29.88 inHg , 1011.9 hPa
Summary: Mist
Clouds: Partly cloudy
Visibility: 3 miles , 5 km
Cloud details: Partly cloudy 1500 ft
2020/06/04 10:41 KSGR 041041Z AUTO 00000KT 3SM BR SCT015 23/23 A2988 RMK AO2 T02280228
K6R3 - Cleveland Muni, Texas, USA
Distance from station: NE 36mi, 58km
Updated: 06/04/2020 5:35am
Fog, Overcast
Fog, Overcast
 Wind from calm
Wind: Calm
Temperature: 72°F , 22°C
Dew Point: 72°F , 22°C
Humidity: 100%
Barometer: 29.90 inHg , 1012.5 hPa
Summary: Fog
Clouds: Overcast
Visibility: less than 1/4 mile , 0.4 km
Cloud details: Overcast 300 ft
2020/06/04 10:35 K6R3 041035Z AUTO 00000KT M1/4SM FG OVC003 22/22 A2990 RMK AO2 T02160216
 
KAXH - Houston/Southwst, Texas, USA
Distance from station: S 37mi, 60km
Updated: 06/04/2020 5:35am
Fog, Overcast
Fog, Overcast
 Wind from calm
Wind: Calm
Temperature: 70°F , 21°C
Dew Point: 70°F , 21°C
Humidity: 100%
Barometer: 29.88 inHg , 1011.9 hPa
Summary: Fog
Clouds: Overcast
Visibility: 1/4 mile , 0.4 km
Cloud details: Overcast 400 ft
2020/06/04 10:35 KAXH 041035Z AUTO 00000KT 1/4SM FG OVC004 21/21 A2988 RMK AO2 T02120212
KEFD - Houston/Ellingto, Texas, USA
Distance from station: SSE 37mi, 60km
Updated: 06/04/2020 4:50am
Partly cloudy
Partly cloudy
 Wind from calm
Wind: Calm
Temperature: 75°F , 24°C
Dew Point: 73°F , 23°C
Humidity: 94%
Barometer: 29.88 inHg , 1011.9 hPa
Clouds: Partly cloudy
Visibility: 10 miles , 16 km
Cloud details: Partly cloudy 1500 ft
2020/06/04 09:50 KEFD 040950Z 00000KT 10SM SCT015 24/23 A2988
 
KLVJ - Houston, Texas, USA
Distance from station: SSE 40mi, 64km
Updated: 06/04/2020 4:53am
Clear
Clear
 Wind from calm
Wind: Calm
Temperature: 75°F , 24°C
Dew Point: 72°F , 22°C
Humidity: 89%
Barometer: 29.89 inHg , 1012.2 hPa
Clouds: Clear
Visibility: 10 miles , 16 km
2020/06/04 09:53 KLVJ 040953Z AUTO 00000KT 10SM CLR 24/22 A2989 RMK AO2 SLP121 T02390217
KUTS - Huntsville, Texas, USA
Distance from station: N 48mi, 78km
Updated: 06/04/2020 5:38am
Overcast
Overcast
 Wind from SSW
Wind: SSW 6 mph , 9 km/h
Temperature: 75°F , 24°C
Dew Point: 72°F , 22°C
Humidity: 89%
Barometer: 29.88 inHg , 1011.9 hPa
Clouds: Overcast
Visibility: 8 miles , 13 km
Cloud details: Overcast 400 ft
2020/06/04 10:38 KUTS 041038Z AUTO 20005KT 8SM OVC004 24/22 A2988 RMK AO2 CIG 003V006 T02390222